Time;durP1;ratioP1;P1;durP2;ratioP2;P2;SDS_P1;SDS_P2;PMS_P1;PMS_P2;Temp;Humidity;BMP_temperature;BMP_pressure;BME280_temperature;BME280_humidity;BME280_pressure;Samples;Min_cycle;Max_cycle;Signal;HPM_P1;HPM_P2
2022/07/10 00:01:14;;;;;;;7.93;7.47;;;22.30;71.10;;;;;;5033454;28;20208;-86
2022/07/10 00:03:40;;;;;;;9.20;8.65;;;22.30;69.80;;;;;;5034636;28;20255;-87
2022/07/10 00:06:07;;;;;;;8.13;7.72;;;22.40;69.40;;;;;;5029022;28;20203;-86
2022/07/10 00:08:32;;;;;;;7.95;7.55;;;22.50;69.20;;;;;;5031036;28;20212;-88
2022/07/10 00:10:58;;;;;;;7.88;7.45;;;22.50;69.00;;;;;;5031250;28;20219;-87
2022/07/10 00:13:24;;;;;;;7.97;7.22;;;22.60;68.60;;;;;;5034610;28;20201;-87
2022/07/10 00:15:49;;;;;;;8.45;7.95;;;22.60;68.40;;;;;;5032720;28;20246;-86
2022/07/10 00:18:15;;;;;;;7.93;7.53;;;22.50;70.20;;;;;;5033530;28;20257;-87
2022/07/10 00:20:41;;;;;;;8.07;7.68;;;22.20;70.50;;;;;;5034217;28;20208;-87
2022/07/10 00:23:06;;;;;;;7.93;7.50;;;22.20;71.70;;;;;;5038345;28;20193;-87
2022/07/10 00:25:33;;;;;;;7.82;7.43;;;22.00;73.40;;;;;;5018100;28;20189;-86
2022/07/10 00:27:59;;;;;;;7.82;7.43;;;22.00;71.60;;;;;;5031096;28;20192;-87
2022/07/10 00:30:25;;;;;;;7.25;6.95;;;22.00;71.60;;;;;;5032934;28;20190;-86
2022/07/10 00:32:50;;;;;;;8.18;7.72;;;22.10;71.20;;;;;;5042288;28;20211;-87
2022/07/10 00:35:16;;;;;;;8.23;7.70;;;22.20;70.40;;;;;;5031282;28;20212;-87
2022/07/10 00:37:42;;;;;;;7.75;7.35;;;22.20;70.20;;;;;;5048840;28;20766;-86
2022/07/10 00:40:08;;;;;;;7.97;7.53;;;22.20;70.70;;;;;;5025639;28;20191;-86
2022/07/10 00:42:34;;;;;;;7.70;7.30;;;22.20;70.50;;;;;;5037607;28;20199;-86
2022/07/10 00:45:00;;;;;;;7.80;7.18;;;22.10;71.20;;;;;;5034802;28;20208;-87
2022/07/10 00:47:26;;;;;;;7.70;7.25;;;22.10;71.60;;;;;;5037475;28;20216;-88
2022/07/10 00:49:51;;;;;;;9.00;7.95;;;22.10;70.90;;;;;;5039474;28;20376;-88
2022/07/10 00:52:18;;;;;;;11.70;8.23;;;22.10;70.60;;;;;;5036877;28;20212;-87
2022/07/10 00:54:47;;;;;;;8.35;7.90;;;22.10;71.60;;;;;;5038150;28;20238;-87
2022/07/10 00:57:14;;;;;;;9.07;8.50;;;21.80;71.90;;;;;;5040835;28;20204;-88
2022/07/10 00:59:40;;;;;;;8.23;7.72;;;21.50;70.30;;;;;;5037962;28;20208;-88
2022/07/10 01:02:06;;;;;;;7.70;7.10;;;21.50;72.50;;;;;;5041197;28;20221;-87
2022/07/10 01:04:33;;;;;;;7.25;6.85;;;21.40;74.00;;;;;;5035782;28;20260;-87
2022/07/10 01:07:02;;;;;;;7.15;6.75;;;21.30;74.20;;;;;;5040138;28;20280;-86
2022/07/10 01:09:30;;;;;;;7.43;6.93;;;21.20;72.50;;;;;;5039383;28;20220;-86
2022/07/10 01:11:59;;;;;;;6.72;6.30;;;21.10;74.10;;;;;;5037077;28;20223;-87
2022/07/10 01:14:25;;;;;;;6.80;6.40;;;21.10;72.50;;;;;;5036789;28;20208;-86
2022/07/10 01:16:53;;;;;;;7.10;6.60;;;21.10;70.80;;;;;;5036986;28;20192;-88
2022/07/10 01:19:19;;;;;;;5.90;5.50;;;20.90;69.70;;;;;;5036246;28;20191;-88
2022/07/10 01:21:45;;;;;;;5.80;5.40;;;20.70;69.70;;;;;;5033918;28;20190;-89
2022/07/10 01:24:11;;;;;;;6.47;5.97;;;20.70;70.00;;;;;;5040287;28;20514;-86
2022/07/10 01:26:38;;;;;;;5.88;5.55;;;20.70;69.60;;;;;;5033962;28;20193;-88
2022/07/10 01:29:09;;;;;;;5.72;5.32;;;20.80;69.10;;;;;;5038656;28;20175;-88
2022/07/10 01:31:34;;;;;;;5.70;5.40;;;21.00;68.60;;;;;;5028161;28;20241;-87
2022/07/10 01:34:02;;;;;;;6.00;5.45;;;20.90;67.50;;;;;;5043435;28;20201;-86
2022/07/10 01:36:31;;;;;;;5.93;5.43;;;20.90;68.00;;;;;;5035503;28;20188;-87
2022/07/10 01:38:58;;;;;;;5.45;5.05;;;20.80;67.00;;;;;;5034711;28;20221;-87
2022/07/10 01:41:25;;;;;;;5.25;4.82;;;20.60;67.10;;;;;;5025103;28;20229;-87
2022/07/10 01:43:51;;;;;;;5.15;4.75;;;20.30;69.00;;;;;;5032643;28;20213;-87
2022/07/10 01:46:18;;;;;;;4.78;4.30;;;20.10;69.40;;;;;;5035125;28;20555;-87
2022/07/10 01:48:44;;;;;;;5.15;4.75;;;20.10;70.00;;;;;;5034788;28;20193;-87
2022/07/10 01:51:11;;;;;;;5.25;4.85;;;20.10;68.70;;;;;;5031029;28;20278;-87
2022/07/10 01:53:37;;;;;;;5.35;4.97;;;20.00;68.60;;;;;;5036673;28;20215;-86
2022/07/10 01:56:06;;;;;;;6.07;5.03;;;19.90;68.70;;;;;;5035520;28;20189;-87
2022/07/10 01:58:32;;;;;;;5.00;4.70;;;19.90;69.40;;;;;;5034239;28;20215;-87
2022/07/10 02:00:59;;;;;;;5.20;4.80;;;19.80;69.70;;;;;;5036472;28;20192;-86
2022/07/10 02:06:09;;;;;;;5.07;4.68;;;19.70;69.50;;;;;;5030486;28;20258;-86
2022/07/10 02:08:35;;;;;;;5.43;4.70;;;19.50;70.30;;;;;;5037842;28;20173;-86
2022/07/10 02:11:00;;;;;;;5.10;4.65;;;19.30;71.30;;;;;;5034386;28;20228;-87
2022/07/10 02:13:27;;;;;;;5.22;4.82;;;19.10;71.30;;;;;;5035923;28;20210;-86
2022/07/10 02:15:54;;;;;;;5.77;4.93;;;19.10;71.80;;;;;;5034861;28;20179;-87
2022/07/10 02:18:20;;;;;;;4.93;4.53;;;19.10;71.80;;;;;;5037089;28;20192;-86
2022/07/10 02:20:46;;;;;;;6.27;4.53;;;18.90;72.50;;;;;;5044127;28;20220;-87
2022/07/10 02:23:12;;;;;;;4.93;4.63;;;18.90;72.60;;;;;;5032730;28;20229;-87
2022/07/10 02:25:38;;;;;;;5.18;4.65;;;18.90;72.70;;;;;;5037437;28;20196;-86
2022/07/10 02:28:04;;;;;;;5.50;4.70;;;18.90;72.10;;;;;;5032926;28;20253;-87
2022/07/10 02:30:30;;;;;;;4.85;4.53;;;18.90;72.10;;;;;;5042428;28;20203;-86
2022/07/10 02:32:59;;;;;;;4.72;4.32;;;18.80;72.60;;;;;;5036163;28;20188;-86
2022/07/10 02:35:25;;;;;;;4.87;4.47;;;18.80;73.00;;;;;;5033307;28;20191;-85
2022/07/10 02:37:50;;;;;;;4.63;4.27;;;18.80;72.50;;;;;;5038848;28;20198;-86
2022/07/10 02:40:16;;;;;;;4.53;4.23;;;18.70;72.50;;;;;;5029305;28;20251;-86
2022/07/10 02:42:42;;;;;;;5.03;4.35;;;18.70;72.70;;;;;;5036727;28;20196;-87
2022/07/10 02:45:08;;;;;;;4.70;4.30;;;18.60;73.10;;;;;;5034031;28;20295;-86
2022/07/10 02:47:34;;;;;;;4.53;4.07;;;18.70;72.90;;;;;;5033257;28;20258;-86
2022/07/10 02:50:00;;;;;;;4.72;4.32;;;18.70;72.40;;;;;;5044375;28;20204;-86
2022/07/10 02:52:26;;;;;;;4.22;3.92;;;18.60;72.90;;;;;;5039576;28;20221;-87
2022/07/10 02:54:52;;;;;;;5.05;4.13;;;18.70;72.50;;;;;;5040906;28;20220;-87
2022/07/10 02:57:18;;;;;;;5.78;4.00;;;18.70;72.90;;;;;;5046618;28;20195;-87
2022/07/10 02:59:44;;;;;;;6.63;4.55;;;18.70;72.90;;;;;;5052333;28;20283;-86
2022/07/10 03:02:10;;;;;;;4.53;4.20;;;18.50;73.40;;;;;;5043203;28;20216;-87
2022/07/10 03:04:36;;;;;;;4.53;4.13;;;18.40;73.90;;;;;;5040889;28;20204;-88
2022/07/10 03:07:02;;;;;;;4.77;4.37;;;18.40;74.30;;;;;;5053807;28;20251;-86
2022/07/10 03:09:27;;;;;;;6.53;4.20;;;18.50;73.70;;;;;;5042536;28;20290;-87
2022/07/10 03:11:53;;;;;;;4.97;4.23;;;18.50;74.10;;;;;;5041730;28;20277;-86
2022/07/10 03:14:19;;;;;;;4.57;4.28;;;18.40;74.30;;;;;;5048594;28;20287;-86
2022/07/10 03:16:45;;;;;;;6.97;4.47;;;18.60;73.80;;;;;;5042529;28;20257;-86
2022/07/10 03:19:10;;;;;;;4.85;4.40;;;18.50;73.70;;;;;;5049448;28;20183;-87
2022/07/10 03:21:36;;;;;;;4.90;4.50;;;18.50;73.70;;;;;;5044156;28;20197;-86
2022/07/10 03:24:05;;;;;;;5.47;4.97;;;18.50;73.90;;;;;;5043719;28;20237;-86
2022/07/10 03:26:31;;;;;;;4.40;4.10;;;18.40;73.20;;;;;;5047534;28;20207;-85
2022/07/10 03:28:57;;;;;;;4.60;4.27;;;18.30;73.50;;;;;;5049028;28;20191;-87
2022/07/10 03:31:23;;;;;;;4.50;4.10;;;18.20;74.00;;;;;;5030476;28;20224;-87
2022/07/10 03:33:49;;;;;;;5.10;4.67;;;18.20;74.70;;;;;;5037397;28;20211;-86
2022/07/10 03:36:15;;;;;;;6.20;4.20;;;18.00;74.40;;;;;;5042755;28;20192;-87
2022/07/10 03:38:41;;;;;;;4.63;4.23;;;18.00;74.80;;;;;;5042649;28;20209;-87
2022/07/10 03:41:07;;;;;;;4.57;4.23;;;18.00;74.80;;;;;;5044182;28;20194;-88
2022/07/10 03:43:32;;;;;;;5.00;4.50;;;18.10;73.80;;;;;;5041408;28;20228;-86
2022/07/10 03:45:58;;;;;;;4.53;4.13;;;18.10;74.00;;;;;;5048316;28;20190;-87
2022/07/10 03:48:24;;;;;;;4.27;3.90;;;18.20;73.60;;;;;;5045223;28;20196;-88
2022/07/10 03:50:51;;;;;;;4.33;4.03;;;18.10;73.20;;;;;;5036324;28;20245;-86
2022/07/10 03:53:18;;;;;;;4.40;4.00;;;18.00;73.20;;;;;;5019560;28;20216;-87
2022/07/10 03:55:43;;;;;;;4.50;4.10;;;18.10;73.80;;;;;;5047426;28;20191;-88
2022/07/10 03:58:10;;;;;;;4.33;3.97;;;18.30;72.50;;;;;;5042859;28;20285;-86
2022/07/10 04:00:38;;;;;;;4.50;4.10;;;18.30;72.40;;;;;;5039470;28;20232;-88
2022/07/10 04:03:05;;;;;;;4.00;3.70;;;18.00;72.60;;;;;;5045305;28;20189;-87
2022/07/10 04:05:32;;;;;;;4.80;3.63;;;17.90;73.20;;;;;;5042118;28;20193;-85
2022/07/10 04:07:59;;;;;;;5.90;3.80;;;17.90;73.20;;;;;;5041613;28;20332;-87
2022/07/10 04:10:26;;;;;;;4.10;3.43;;;18.00;73.40;;;;;;5044798;28;20192;-88
2022/07/10 04:12:52;;;;;;;4.17;3.83;;;18.00;72.30;;;;;;5043576;28;20166;-87
2022/07/10 04:15:18;;;;;;;4.30;3.87;;;18.10;72.60;;;;;;5040451;28;20220;-87
2022/07/10 04:17:44;;;;;;;4.17;3.73;;;18.10;72.20;;;;;;5041993;28;20231;-87
2022/07/10 04:20:10;;;;;;;4.17;3.70;;;18.00;72.50;;;;;;5046444;28;20198;-88
2022/07/10 04:22:36;;;;;;;4.23;3.90;;;17.80;73.40;;;;;;5047403;28;20259;-87
2022/07/10 04:25:03;;;;;;;5.27;4.00;;;17.90;73.40;;;;;;5050471;28;20219;-89
2022/07/10 04:27:29;;;;;;;5.47;3.67;;;18.00;72.70;;;;;;5047175;28;20197;-86
2022/07/10 04:29:55;;;;;;;4.37;3.97;;;18.10;72.40;;;;;;5037790;28;20208;-87
2022/07/10 04:32:21;;;;;;;4.37;3.60;;;18.00;72.10;;;;;;5046997;28;20299;-86
2022/07/10 04:34:47;;;;;;;4.40;4.00;;;17.90;72.90;;;;;;5037642;28;20217;-87
2022/07/10 04:37:12;;;;;;;4.73;3.70;;;18.00;72.60;;;;;;5043668;28;20211;-89
2022/07/10 04:39:39;;;;;;;4.40;4.00;;;17.90;72.80;;;;;;5037305;28;20203;-86
2022/07/10 04:42:06;;;;;;;4.93;4.00;;;17.90;72.30;;;;;;5040845;28;20217;-87
2022/07/10 04:44:33;;;;;;;3.70;3.40;;;17.90;72.70;;;;;;5031342;28;20296;-86
2022/07/10 04:46:59;;;;;;;3.87;3.57;;;17.80;72.80;;;;;;5040525;28;20203;-87
2022/07/10 04:49:25;;;;;;;3.83;3.43;;;17.80;73.00;;;;;;5039436;28;20285;-88
2022/07/10 04:51:52;;;;;;;4.40;4.00;;;17.90;73.00;;;;;;5041188;28;20288;-87
2022/07/10 04:54:18;;;;;;;4.67;3.77;;;18.00;71.90;;;;;;5038355;28;20226;-87
2022/07/10 04:56:44;;;;;;;4.20;3.83;;;17.90;72.30;;;;;;5042483;28;20269;-87
2022/07/10 04:59:10;;;;;;;4.30;3.73;;;17.90;72.60;;;;;;5035824;28;20208;-87
2022/07/10 05:01:39;;;;;;;4.83;4.00;;;17.90;72.10;;;;;;5042930;28;20207;-88
2022/07/10 05:04:06;;;;;;;6.00;3.80;;;17.70;73.30;;;;;;5040562;28;20274;-86
2022/07/10 05:06:31;;;;;;;6.10;3.60;;;17.80;72.50;;;;;;5036389;28;20193;-87
2022/07/10 05:08:57;;;;;;;4.13;3.57;;;17.80;72.70;;;;;;5039157;28;20200;-88
2022/07/10 05:11:23;;;;;;;3.63;3.43;;;17.80;73.10;;;;;;5033836;28;20283;-86
2022/07/10 05:13:49;;;;;;;4.20;3.80;;;17.90;72.10;;;;;;5038918;28;20240;-89
2022/07/10 05:16:16;;;;;;;5.70;3.87;;;17.80;72.60;;;;;;5033555;28;20182;-87
2022/07/10 05:18:41;;;;;;;4.23;3.80;;;17.80;72.50;;;;;;5038354;28;20193;-87
2022/07/10 05:21:08;;;;;;;4.20;3.90;;;17.90;72.40;;;;;;5038717;28;20192;-87
2022/07/10 05:23:35;;;;;;;3.50;3.30;;;18.00;72.70;;;;;;5037610;28;20212;-89
2022/07/10 05:26:01;;;;;;;5.00;4.13;;;18.00;71.60;;;;;;5030290;28;20187;-86
2022/07/10 05:28:27;;;;;;;4.17;3.67;;;18.00;71.90;;;;;;5039621;28;20215;-87
2022/07/10 05:30:52;;;;;;;4.00;3.53;;;18.10;71.20;;;;;;5041401;28;20791;-87
2022/07/10 05:33:18;;;;;;;3.70;3.50;;;18.00;70.60;;;;;;5042077;28;20569;-86
2022/07/10 05:35:45;;;;;;;4.20;3.80;;;17.90;70.90;;;;;;5035518;28;20192;-87
2022/07/10 05:38:11;;;;;;;4.63;4.07;;;17.80;70.70;;;;;;5036078;28;20188;-87
2022/07/10 05:40:37;;;;;;;5.33;3.47;;;17.90;71.00;;;;;;5034694;28;20203;-87
2022/07/10 05:43:03;;;;;;;3.93;3.50;;;17.90;71.00;;;;;;5042261;28;20180;-86
2022/07/10 05:45:29;;;;;;;5.10;4.20;;;17.90;71.10;;;;;;5039257;28;20738;-88
2022/07/10 05:47:55;;;;;;;3.90;3.60;;;17.90;70.30;;;;;;5042231;28;20212;-88
2022/07/10 05:50:21;;;;;;;4.03;3.70;;;17.70;71.40;;;;;;5042483;28;20251;-87
2022/07/10 05:52:47;;;;;;;4.40;3.50;;;17.80;71.70;;;;;;5042467;28;20225;-87
2022/07/10 05:55:14;;;;;;;4.30;3.57;;;17.80;70.80;;;;;;5041609;28;20220;-87
2022/07/10 05:57:40;;;;;;;4.33;3.83;;;17.80;70.50;;;;;;5041847;28;20254;-86
2022/07/10 06:00:07;;;;;;;4.07;3.60;;;17.90;70.50;;;;;;5042358;28;20192;-86
2022/07/10 06:02:32;;;;;;;4.23;3.57;;;17.90;69.80;;;;;;5044164;28;20842;-87
2022/07/10 06:04:59;;;;;;;4.27;3.30;;;17.80;70.40;;;;;;5041070;28;20204;-87
2022/07/10 06:07:25;;;;;;;5.63;3.67;;;17.80;70.60;;;;;;5037315;28;20191;-87
2022/07/10 06:09:51;;;;;;;4.13;3.73;;;17.80;70.30;;;;;;5041009;28;20197;-88
2022/07/10 06:12:17;;;;;;;4.20;3.90;;;18.10;69.90;;;;;;5038029;28;20286;-87
2022/07/10 06:14:43;;;;;;;5.10;4.10;;;18.20;68.10;;;;;;5036142;28;20211;-87
2022/07/10 06:17:09;;;;;;;4.50;3.80;;;18.20;67.10;;;;;;5040510;28;20189;-86
2022/07/10 06:19:35;;;;;;;4.10;3.70;;;18.20;67.60;;;;;;5042753;28;20185;-88
2022/07/10 06:24:45;;;;;;;6.40;3.97;;;18.20;68.30;;;;;;5039413;28;20261;-89
2022/07/10 06:27:11;;;;;;;4.87;3.87;;;18.20;67.50;;;;;;5046593;28;20185;-89
2022/07/10 06:29:37;;;;;;;4.60;3.90;;;18.30;67.90;;;;;;5044947;28;20288;-87
2022/07/10 06:32:04;;;;;;;4.30;3.70;;;18.40;67.80;;;;;;5042206;28;20217;-88
2022/07/10 06:34:29;;;;;;;4.23;3.93;;;18.40;67.30;;;;;;5040389;28;20244;-87
2022/07/10 06:36:55;;;;;;;5.03;3.83;;;18.60;66.80;;;;;;5037947;28;20194;-86
2022/07/10 06:39:21;;;;;;;4.47;4.10;;;18.50;66.90;;;;;;5038066;28;20196;-86
2022/07/10 06:41:47;;;;;;;4.63;4.20;;;18.60;65.90;;;;;;5037049;28;20322;-86
2022/07/10 06:44:12;;;;;;;4.50;4.17;;;18.50;66.00;;;;;;5037239;28;20210;-87
2022/07/10 06:46:39;;;;;;;4.20;3.80;;;18.40;66.30;;;;;;5039995;28;20229;-89
2022/07/10 06:49:05;;;;;;;6.37;4.03;;;18.50;66.40;;;;;;5043745;28;20197;-87
2022/07/10 06:51:31;;;;;;;5.57;4.70;;;18.60;66.20;;;;;;5031918;28;20218;-87
2022/07/10 06:53:58;;;;;;;4.00;3.80;;;18.60;65.90;;;;;;5038745;28;20225;-86
2022/07/10 06:56:23;;;;;;;5.60;4.30;;;18.60;66.10;;;;;;5036010;28;20195;-86
2022/07/10 06:58:49;;;;;;;4.30;3.97;;;18.50;65.10;;;;;;5038462;28;20178;-87
2022/07/10 07:01:15;;;;;;;3.53;3.23;;;18.50;66.30;;;;;;5036049;28;20612;-87
2022/07/10 07:03:41;;;;;;;5.72;4.32;;;18.60;66.00;;;;;;5030798;28;20301;-87
2022/07/10 07:06:07;;;;;;;4.70;3.90;;;18.70;65.90;;;;;;5032793;28;20195;-87
2022/07/10 07:08:32;;;;;;;4.83;4.30;;;18.80;64.00;;;;;;5034465;28;20330;-86
2022/07/10 07:10:58;;;;;;;4.50;4.20;;;18.80;63.50;;;;;;5042157;28;20230;-87
2022/07/10 07:13:24;;;;;;;4.43;3.70;;;19.20;62.70;;;;;;5036999;28;20239;-85
2022/07/10 07:15:59;;;;;;;4.22;3.40;;;19.20;59.30;;;;;;5031063;28;20205;-86
2022/07/10 07:18:36;;;;;;;3.70;3.50;;;19.30;59.50;;;;;;5032530;28;20318;-86
2022/07/10 07:23:54;;;;;;;3.85;3.28;;;19.60;57.60;;;;;;5035707;28;20640;-87
2022/07/10 07:26:20;;;;;;;3.92;2.92;;;19.50;54.10;;;;;;5045765;28;20233;-87
2022/07/10 07:28:46;;;;;;;4.88;3.17;;;19.20;57.00;;;;;;5055904;28;20175;-88
2022/07/10 07:31:12;;;;;;;4.57;3.20;;;19.10;57.00;;;;;;5047772;28;20234;-88
2022/07/10 07:33:38;;;;;;;3.72;3.38;;;19.00;57.60;;;;;;5048487;28;20227;-88
2022/07/10 07:36:03;;;;;;;5.35;3.45;;;19.10;57.90;;;;;;5032130;28;20193;-87
2022/07/10 07:38:29;;;;;;;5.65;3.88;;;19.10;58.10;;;;;;5040492;28;20193;-84
2022/07/10 07:40:55;;;;;;;3.67;3.33;;;18.90;57.50;;;;;;5039091;28;20371;-88
2022/07/10 07:43:21;;;;;;;3.97;3.50;;;19.00;57.70;;;;;;5043389;28;20213;-88
2022/07/10 07:45:47;;;;;;;4.38;3.47;;;19.10;57.20;;;;;;5036704;28;20200;-88
2022/07/10 07:48:13;;;;;;;4.20;3.35;;;19.10;57.60;;;;;;5037703;28;20197;-88
2022/07/10 07:50:38;;;;;;;4.50;3.38;;;19.20;55.70;;;;;;5036196;28;20204;-88
2022/07/10 07:53:06;;;;;;;4.00;3.70;;;19.30;56.10;;;;;;5033567;28;20185;-87
2022/07/10 07:55:33;;;;;;;3.78;3.58;;;19.60;55.60;;;;;;5031931;28;20197;-88
2022/07/10 07:57:59;;;;;;;4.05;3.60;;;20.00;55.20;;;;;;5034113;28;20195;-89
2022/07/10 08:00:27;;;;;;;3.72;3.53;;;20.10;54.70;;;;;;5036989;28;20173;-88
2022/07/10 08:02:54;;;;;;;3.80;3.50;;;20.20;54.20;;;;;;5032328;28;20181;-89
2022/07/10 08:05:21;;;;;;;3.80;3.60;;;20.30;53.10;;;;;;5040963;28;20328;-89
2022/07/10 08:07:52;;;;;;;4.57;3.97;;;20.40;52.70;;;;;;5037356;28;20660;-88
2022/07/10 08:10:20;;;;;;;4.13;3.88;;;20.30;53.40;;;;;;5036004;28;20271;-87
2022/07/10 08:12:47;;;;;;;6.28;3.90;;;20.20;53.50;;;;;;5033485;28;20211;-86
2022/07/10 08:15:17;;;;;;;3.80;3.50;;;20.20;55.00;;;;;;5038332;28;20219;-87
2022/07/10 08:17:46;;;;;;;4.03;3.72;;;20.30;52.60;;;;;;5035108;28;20208;-85
2022/07/10 08:20:13;;;;;;;4.07;3.70;;;20.20;52.60;;;;;;5037087;28;20182;-86
2022/07/10 08:22:39;;;;;;;4.22;3.83;;;20.20;53.40;;;;;;5035290;28;20770;-86
2022/07/10 08:25:06;;;;;;;3.88;3.58;;;20.30;53.60;;;;;;5033429;28;20201;-86
2022/07/10 08:27:32;;;;;;;3.85;3.60;;;20.60;53.70;;;;;;5036985;28;20189;-84
2022/07/10 08:29:57;;;;;;;4.00;3.65;;;20.70;52.10;;;;;;5035249;28;20196;-86
2022/07/10 08:32:23;;;;;;;4.75;4.10;;;20.60;52.70;;;;;;5033804;28;20284;-85
2022/07/10 08:34:49;;;;;;;5.72;4.03;;;20.60;51.70;;;;;;5033346;28;20228;-86
2022/07/10 08:37:15;;;;;;;4.00;3.70;;;20.40;51.60;;;;;;5039173;28;20208;-86
2022/07/10 08:39:41;;;;;;;4.22;3.78;;;20.40;51.70;;;;;;5048013;28;20196;-84
2022/07/10 08:42:10;;;;;;;5.40;3.63;;;20.30;51.60;;;;;;5033057;28;20185;-84
2022/07/10 08:44:36;;;;;;;3.67;3.45;;;20.40;50.20;;;;;;5035561;28;20201;-86
2022/07/10 08:47:03;;;;;;;3.60;3.30;;;20.40;49.70;;;;;;5026525;28;20182;-85
2022/07/10 08:49:30;;;;;;;3.67;3.42;;;20.30;50.40;;;;;;5036903;28;20181;-86
2022/07/10 08:52:02;;;;;;;3.72;3.28;;;20.40;48.80;;;;;;5040436;28;20209;-86
2022/07/10 08:54:29;;;;;;;3.50;3.20;;;20.60;48.70;;;;;;5039127;28;20243;-85
2022/07/10 08:56:57;;;;;;;4.03;3.70;;;20.80;49.20;;;;;;5040546;28;20248;-86
2022/07/10 08:59:23;;;;;;;3.65;3.45;;;21.00;48.40;;;;;;5041250;28;20181;-86
2022/07/10 09:01:49;;;;;;;3.33;3.10;;;21.20;48.10;;;;;;5038375;28;20204;-85
2022/07/10 09:21:05;;;;;;;4.90;2.50;;;21.70;41.90;;;;;;5816533;22;21734;-86
2022/07/10 09:23:33;;;;;;;6.97;3.15;;;21.40;43.70;;;;;;5055977;28;20207;-84
2022/07/10 09:26:04;;;;;;;2.90;2.70;;;20.80;45.30;;;;;;5056912;28;20200;-85
2022/07/10 09:28:34;;;;;;;2.83;2.60;;;20.70;46.80;;;;;;5048279;28;20219;-85
2022/07/10 09:30:59;;;;;;;2.78;2.58;;;20.60;47.00;;;;;;5052593;28;20298;-85
2022/07/10 09:33:27;;;;;;;3.05;2.50;;;20.60;45.40;;;;;;5047402;28;20239;-85
2022/07/10 09:36:05;;;;;;;4.75;2.50;;;20.90;45.70;;;;;;5053311;28;20178;-85
2022/07/10 09:38:43;;;;;;;2.70;2.50;;;21.50;43.90;;;;;;5054269;28;20184;-85
2022/07/10 09:41:15;;;;;;;3.13;2.80;;;21.70;42.70;;;;;;5053207;28;20233;-81
2022/07/10 09:43:51;;;;;;;4.93;2.70;;;21.70;42.40;;;;;;5052488;28;20194;-85
2022/07/10 09:46:19;;;;;;;2.88;2.60;;;21.60;40.40;;;;;;5059710;28;20182;-83
2022/07/10 09:48:45;;;;;;;2.72;2.50;;;21.40;41.60;;;;;;5051719;28;20187;-85
2022/07/10 09:51:12;;;;;;;3.40;2.80;;;21.60;41.50;;;;;;5058928;28;20230;-85
2022/07/10 09:53:42;;;;;;;2.80;2.60;;;21.50;40.90;;;;;;5056668;28;20198;-84
2022/07/10 09:56:10;;;;;;;2.58;2.38;;;21.70;40.00;;;;;;5053468;28;20181;-84
2022/07/10 09:58:36;;;;;;;2.50;2.40;;;22.00;39.40;;;;;;5059802;28;20206;-84
2022/07/10 10:01:04;;;;;;;2.78;2.63;;;22.00;39.00;;;;;;5072481;28;20213;-83
2022/07/10 10:03:37;;;;;;;3.10;2.88;;;22.20;38.70;;;;;;5065922;28;20191;-85
2022/07/10 10:06:15;;;;;;;5.57;2.92;;;22.30;39.50;;;;;;5056481;28;20188;-84
2022/07/10 10:09:17;;;;;;;3.83;2.80;;;22.50;38.80;;;;;;5060610;28;20247;-86
2022/07/10 10:11:45;;;;;;;3.00;2.80;;;22.40;38.40;;;;;;5056679;28;20211;-85
2022/07/10 10:14:12;;;;;;;3.10;2.90;;;22.40;38.70;;;;;;5059381;28;20188;-84
2022/07/10 10:16:39;;;;;;;3.95;3.00;;;22.30;38.30;;;;;;5055169;28;20243;-84
2022/07/10 10:21:54;;;;;;;3.75;3.10;;;22.80;37.90;;;;;;5054014;28;20218;-84
2022/07/10 10:24:21;;;;;;;4.57;3.20;;;22.30;37.80;;;;;;5057034;28;20614;-85
2022/07/10 10:26:47;;;;;;;3.38;3.00;;;22.50;38.40;;;;;;5057928;28;20188;-84
2022/07/10 10:29:13;;;;;;;3.38;3.10;;;22.50;37.80;;;;;;5055842;28;20197;-85
2022/07/10 10:31:40;;;;;;;3.45;3.20;;;22.90;36.60;;;;;;5059499;28;20220;-84
2022/07/10 10:34:05;;;;;;;3.17;3.00;;;23.20;35.80;;;;;;5058492;28;20180;-85
2022/07/10 10:36:41;;;;;;;3.20;3.00;;;23.20;35.00;;;;;;5059590;28;20212;-84
2022/07/10 10:39:21;;;;;;;3.30;3.00;;;23.20;35.80;;;;;;5054060;28;20597;-84
2022/07/10 10:41:52;;;;;;;4.70;3.10;;;23.00;35.50;;;;;;5054281;28;20187;-85
2022/07/10 10:44:17;;;;;;;3.15;2.95;;;23.00;35.70;;;;;;5054594;28;20192;-84
2022/07/10 10:47:07;;;;;;;3.65;3.03;;;23.50;35.20;;;;;;5058663;28;20479;-85
2022/07/10 10:49:57;;;;;;;4.07;3.03;;;24.20;34.50;;;;;;5058391;28;20435;-85
2022/07/10 10:52:24;;;;;;;3.60;3.35;;;24.20;34.30;;;;;;5058452;28;20200;-85
2022/07/10 10:55:03;;;;;;;3.35;3.13;;;24.50;33.30;;;;;;5068777;28;20255;-85
2022/07/10 10:57:32;;;;;;;3.60;3.10;;;24.00;33.40;;;;;;5064794;28;20161;-84
2022/07/10 11:00:06;;;;;;;2.85;2.65;;;24.20;33.60;;;;;;5070069;28;20279;-84
2022/07/10 11:02:34;;;;;;;4.07;3.10;;;24.00;33.70;;;;;;5067712;28;20207;-84
2022/07/10 11:05:13;;;;;;;3.00;2.80;;;24.20;34.00;;;;;;5066617;28;20226;-85
2022/07/10 11:07:59;;;;;;;3.63;2.90;;;24.20;33.80;;;;;;5061132;28;20191;-86
2022/07/10 11:10:37;;;;;;;3.25;2.95;;;23.80;34.40;;;;;;5073648;28;20673;-85
2022/07/10 11:13:11;;;;;;;3.47;3.15;;;24.20;33.40;;;;;;5054944;28;20200;-84
2022/07/10 11:15:42;;;;;;;3.38;3.17;;;24.50;32.70;;;;;;5061163;28;20184;-84
2022/07/10 11:18:21;;;;;;;3.47;3.25;;;24.90;32.80;;;;;;5061284;28;20180;-85
2022/07/10 11:20:53;;;;;;;3.72;3.35;;;24.80;31.90;;;;;;5051537;28;20353;-85
2022/07/10 11:23:51;;;;;;;4.05;3.65;;;24.80;31.70;;;;;;5062651;28;20195;-85
2022/07/10 11:26:25;;;;;;;6.25;3.67;;;24.70;33.60;;;;;;5056865;28;20203;-85
2022/07/10 11:28:55;;;;;;;3.83;3.53;;;25.10;32.60;;;;;;5061773;28;20160;-86
2022/07/10 11:31:23;;;;;;;4.47;3.80;;;24.90;32.40;;;;;;5055949;28;20220;-84
2022/07/10 11:33:54;;;;;;;4.38;4.00;;;25.20;31.10;;;;;;5061005;28;20173;-85
2022/07/10 11:36:34;;;;;;;4.80;4.45;;;25.20;31.90;;;;;;5059124;28;20196;-85
2022/07/10 11:39:04;;;;;;;4.53;4.22;;;25.80;30.90;;;;;;5057861;28;20180;-85
2022/07/10 11:41:30;;;;;;;5.03;4.63;;;25.80;30.20;;;;;;5060349;28;20240;-85
2022/07/10 11:43:59;;;;;;;5.68;4.25;;;25.70;29.80;;;;;;5054191;28;20234;-84
2022/07/10 11:46:26;;;;;;;4.32;4.03;;;25.70;30.00;;;;;;5053427;28;20188;-85
2022/07/10 11:48:53;;;;;;;4.40;4.03;;;25.50;30.70;;;;;;5053724;28;20382;-86
2022/07/10 11:51:36;;;;;;;4.10;3.80;;;25.90;29.80;;;;;;5063431;28;20200;-84
2022/07/10 11:54:11;;;;;;;4.57;4.28;;;26.10;29.80;;;;;;5057629;28;20180;-86
2022/07/10 11:56:41;;;;;;;5.40;4.28;;;26.20;29.80;;;;;;5067587;28;20175;-85
2022/07/10 11:59:09;;;;;;;4.10;3.70;;;26.40;30.10;;;;;;5069148;28;20216;-84
2022/07/10 12:01:48;;;;;;;4.03;3.50;;;26.00;30.80;;;;;;5055781;28;20236;-84
2022/07/10 12:04:22;;;;;;;3.90;3.60;;;25.80;31.00;;;;;;5050376;28;20184;-85
2022/07/10 12:06:49;;;;;;;4.78;3.35;;;25.90;30.00;;;;;;5055761;28;20207;-85
2022/07/10 12:09:16;;;;;;;3.45;3.25;;;26.70;30.00;;;;;;5056240;28;20247;-85
2022/07/10 12:11:44;;;;;;;3.55;3.22;;;26.70;30.20;;;;;;5048714;28;20211;-85
2022/07/10 12:14:10;;;;;;;4.60;3.72;;;27.40;29.70;;;;;;5055567;28;20175;-85
2022/07/10 12:16:36;;;;;;;4.60;3.90;;;27.30;28.80;;;;;;5045181;28;20180;-85
2022/07/10 12:19:03;;;;;;;3.92;3.58;;;26.80;29.90;;;;;;5055561;28;20199;-85
2022/07/10 12:21:29;;;;;;;3.63;3.30;;;26.80;29.10;;;;;;5048867;28;20224;-85
2022/07/10 12:23:56;;;;;;;3.38;3.17;;;26.60;28.90;;;;;;5056194;28;20216;-86
2022/07/10 12:26:22;;;;;;;3.67;3.40;;;26.90;29.00;;;;;;5051726;28;20218;-85
2022/07/10 12:28:52;;;;;;;3.70;3.40;;;27.20;29.40;;;;;;5049132;28;20201;-86
2022/07/10 12:31:32;;;;;;;4.13;3.72;;;27.10;28.60;;;;;;5049849;28;20240;-86
2022/07/10 12:34:03;;;;;;;4.22;3.60;;;26.90;28.90;;;;;;5054240;28;20214;-84
2022/07/10 12:37:09;;;;;;;3.75;3.47;;;26.80;29.10;;;;;;5052439;28;20180;-84
2022/07/10 12:39:36;;;;;;;3.58;3.38;;;27.50;28.10;;;;;;5026585;28;20207;-86
2022/07/10 12:42:04;;;;;;;4.03;3.40;;;27.40;28.50;;;;;;5050763;28;20180;-84
2022/07/10 12:44:41;;;;;;;3.63;3.33;;;27.80;28.50;;;;;;5059138;28;20184;-85
2022/07/10 12:47:12;;;;;;;5.15;3.70;;;27.80;28.00;;;;;;5061927;28;20216;-84
2022/07/10 12:49:54;;;;;;;4.43;3.70;;;27.40;28.60;;;;;;5060600;28;20192;-84
2022/07/10 12:52:28;;;;;;;3.63;3.42;;;27.80;27.90;;;;;;5050513;28;20205;-85
2022/07/10 12:55:21;;;;;;;4.20;3.65;;;27.90;27.90;;;;;;5054615;28;20190;-85
2022/07/10 12:57:53;;;;;;;4.00;3.70;;;27.80;27.90;;;;;;5066226;28;20260;-84
2022/07/10 13:00:20;;;;;;;4.28;3.65;;;27.90;27.90;;;;;;5052740;28;20220;-84
2022/07/10 13:02:50;;;;;;;6.05;3.90;;;28.50;28.10;;;;;;5049713;28;20203;-85
2022/07/10 13:05:45;;;;;;;4.05;3.60;;;28.50;28.10;;;;;;5049449;28;20180;-85
2022/07/10 13:08:16;;;;;;;4.03;3.72;;;28.50;27.60;;;;;;5042690;28;20215;-86
2022/07/10 13:10:44;;;;;;;3.90;3.60;;;27.80;28.40;;;;;;5049922;28;20212;-85
2022/07/10 13:13:10;;;;;;;3.67;3.40;;;28.60;27.60;;;;;;5048521;28;20197;-86
2022/07/10 13:15:40;;;;;;;4.10;3.72;;;28.40;27.70;;;;;;5053197;28;20647;-86
2022/07/10 13:18:33;;;;;;;4.15;3.85;;;28.60;27.80;;;;;;5050848;28;20192;-85
2022/07/10 13:20:59;;;;;;;4.20;3.90;;;27.90;28.30;;;;;;5056548;28;20232;-85